sensor_id;sensor_type;location;lat;lon;timestamp;P1;durP1;ratioP1;P2;durP2;ratioP2
12348;SDS011;5974;42.710;27.258;2022-12-18T00:02:18;2.10;;;1.90;;
12348;SDS011;5974;42.710;27.258;2022-12-18T00:04:45;1.90;;;1.50;;
12348;SDS011;5974;42.710;27.258;2022-12-18T00:07:12;1.70;;;1.60;;
12348;SDS011;5974;42.710;27.258;2022-12-18T00:09:39;1.60;;;1.50;;
12348;SDS011;5974;42.710;27.258;2022-12-18T00:12:06;1.70;;;1.60;;
12348;SDS011;5974;42.710;27.258;2022-12-18T00:14:33;1.60;;;1.50;;
12348;SDS011;5974;42.710;27.258;2022-12-18T00:17:00;1.80;;;1.70;;
12348;SDS011;5974;42.710;27.258;2022-12-18T00:19:28;1.57;;;1.57;;
12348;SDS011;5974;42.710;27.258;2022-12-18T00:21:55;1.67;;;1.47;;
12348;SDS011;5974;42.710;27.258;2022-12-18T00:24:23;1.70;;;1.60;;
12348;SDS011;5974;42.710;27.258;2022-12-18T00:26:50;2.00;;;1.60;;
12348;SDS011;5974;42.710;27.258;2022-12-18T00:29:17;1.70;;;1.60;;
12348;SDS011;5974;42.710;27.258;2022-12-18T00:31:43;3.90;;;1.80;;
12348;SDS011;5974;42.710;27.258;2022-12-18T00:34:11;3.83;;;1.83;;
12348;SDS011;5974;42.710;27.258;2022-12-18T00:36:40;1.63;;;1.53;;
12348;SDS011;5974;42.710;27.258;2022-12-18T00:39:07;1.97;;;1.87;;
12348;SDS011;5974;42.710;27.258;2022-12-18T00:41:36;1.63;;;1.53;;
12348;SDS011;5974;42.710;27.258;2022-12-18T00:44:19;2.60;;;1.63;;
12348;SDS011;5974;42.710;27.258;2022-12-18T00:46:46;2.77;;;1.73;;
12348;SDS011;5974;42.710;27.258;2022-12-18T00:49:14;2.10;;;1.90;;
12348;SDS011;5974;42.710;27.258;2022-12-18T00:51:44;1.93;;;1.83;;
12348;SDS011;5974;42.710;27.258;2022-12-18T00:54:11;1.87;;;1.77;;
12348;SDS011;5974;42.710;27.258;2022-12-18T00:56:38;2.10;;;1.90;;
12348;SDS011;5974;42.710;27.258;2022-12-18T00:59:05;1.90;;;1.80;;
12348;SDS011;5974;42.710;27.258;2022-12-18T01:01:32;4.00;;;2.07;;
12348;SDS011;5974;42.710;27.258;2022-12-18T01:03:59;2.97;;;1.93;;
12348;SDS011;5974;42.710;27.258;2022-12-18T01:06:27;1.93;;;1.80;;
12348;SDS011;5974;42.710;27.258;2022-12-18T01:08:56;1.90;;;1.80;;
12348;SDS011;5974;42.710;27.258;2022-12-18T01:11:23;1.97;;;1.87;;
12348;SDS011;5974;42.710;27.258;2022-12-18T01:13:51;1.97;;;1.77;;
12348;SDS011;5974;42.710;27.258;2022-12-18T01:16:18;2.30;;;2.20;;
12348;SDS011;5974;42.710;27.258;2022-12-18T01:18:45;2.37;;;1.90;;
12348;SDS011;5974;42.710;27.258;2022-12-18T01:21:13;1.90;;;1.80;;
12348;SDS011;5974;42.710;27.258;2022-12-18T01:23:42;1.57;;;1.57;;
12348;SDS011;5974;42.710;27.258;2022-12-18T01:26:13;2.83;;;1.60;;
12348;SDS011;5974;42.710;27.258;2022-12-18T01:28:42;1.80;;;1.70;;
12348;SDS011;5974;42.710;27.258;2022-12-18T01:31:13;2.00;;;1.80;;
12348;SDS011;5974;42.710;27.258;2022-12-18T01:33:42;1.97;;;1.73;;
12348;SDS011;5974;42.710;27.258;2022-12-18T01:36:14;1.83;;;1.73;;
12348;SDS011;5974;42.710;27.258;2022-12-18T01:38:42;1.90;;;1.80;;
12348;SDS011;5974;42.710;27.258;2022-12-18T01:41:09;1.80;;;1.70;;
12348;SDS011;5974;42.710;27.258;2022-12-18T01:43:45;1.80;;;1.70;;
12348;SDS011;5974;42.710;27.258;2022-12-18T01:46:14;2.07;;;1.60;;
12348;SDS011;5974;42.710;27.258;2022-12-18T01:48:42;3.73;;;2.43;;
12348;SDS011;5974;42.710;27.258;2022-12-18T01:51:10;6.83;;;4.87;;
12348;SDS011;5974;42.710;27.258;2022-12-18T01:53:38;5.73;;;3.03;;
12348;SDS011;5974;42.710;27.258;2022-12-18T01:56:07;2.10;;;1.90;;
12348;SDS011;5974;42.710;27.258;2022-12-18T01:58:40;2.37;;;2.17;;
12348;SDS011;5974;42.710;27.258;2022-12-18T02:01:14;3.67;;;2.20;;
12348;SDS011;5974;42.710;27.258;2022-12-18T02:03:41;2.13;;;1.80;;
12348;SDS011;5974;42.710;27.258;2022-12-18T02:06:11;2.07;;;1.97;;
12348;SDS011;5974;42.710;27.258;2022-12-18T02:08:43;1.80;;;1.70;;
12348;SDS011;5974;42.710;27.258;2022-12-18T02:11:18;2.60;;;1.77;;
12348;SDS011;5974;42.710;27.258;2022-12-18T02:14:02;2.10;;;2.00;;
12348;SDS011;5974;42.710;27.258;2022-12-18T02:16:42;2.60;;;1.90;;
12348;SDS011;5974;42.710;27.258;2022-12-18T02:19:21;2.67;;;2.10;;
12348;SDS011;5974;42.710;27.258;2022-12-18T02:22:15;1.90;;;1.80;;
12348;SDS011;5974;42.710;27.258;2022-12-18T02:24:56;2.80;;;1.90;;
12348;SDS011;5974;42.710;27.258;2022-12-18T02:27:33;2.00;;;1.80;;
12348;SDS011;5974;42.710;27.258;2022-12-18T02:30:01;1.90;;;1.80;;
12348;SDS011;5974;42.710;27.258;2022-12-18T02:32:30;2.00;;;1.90;;
12348;SDS011;5974;42.710;27.258;2022-12-18T02:35:01;1.90;;;1.80;;
12348;SDS011;5974;42.710;27.258;2022-12-18T02:37:30;1.70;;;1.60;;
12348;SDS011;5974;42.710;27.258;2022-12-18T02:40:00;2.00;;;1.90;;
12348;SDS011;5974;42.710;27.258;2022-12-18T02:42:30;2.00;;;1.80;;
12348;SDS011;5974;42.710;27.258;2022-12-18T02:45:00;1.90;;;1.80;;
12348;SDS011;5974;42.710;27.258;2022-12-18T02:47:27;4.40;;;1.90;;
12348;SDS011;5974;42.710;27.258;2022-12-18T02:49:59;2.70;;;2.00;;
12348;SDS011;5974;42.710;27.258;2022-12-18T02:52:33;1.87;;;1.77;;
12348;SDS011;5974;42.710;27.258;2022-12-18T02:55:08;1.80;;;1.70;;
12348;SDS011;5974;42.710;27.258;2022-12-18T02:57:45;1.60;;;1.60;;
12348;SDS011;5974;42.710;27.258;2022-12-18T03:00:17;1.77;;;1.67;;
12348;SDS011;5974;42.710;27.258;2022-12-18T03:02:47;2.20;;;1.87;;
12348;SDS011;5974;42.710;27.258;2022-12-18T03:05:21;1.50;;;1.40;;
12348;SDS011;5974;42.710;27.258;2022-12-18T03:07:52;1.80;;;1.70;;
12348;SDS011;5974;42.710;27.258;2022-12-18T03:10:25;1.60;;;1.50;;
12348;SDS011;5974;42.710;27.258;2022-12-18T03:12:58;1.73;;;1.63;;
12348;SDS011;5974;42.710;27.258;2022-12-18T03:15:30;1.47;;;1.47;;
12348;SDS011;5974;42.710;27.258;2022-12-18T03:18:02;1.53;;;1.50;;
12348;SDS011;5974;42.710;27.258;2022-12-18T03:20:34;1.77;;;1.67;;
12348;SDS011;5974;42.710;27.258;2022-12-18T03:23:04;4.07;;;2.33;;
12348;SDS011;5974;42.710;27.258;2022-12-18T03:25:35;1.60;;;1.50;;
12348;SDS011;5974;42.710;27.258;2022-12-18T03:28:09;1.40;;;1.37;;
12348;SDS011;5974;42.710;27.258;2022-12-18T03:30:40;1.93;;;1.83;;
12348;SDS011;5974;42.710;27.258;2022-12-18T03:33:10;1.40;;;1.30;;
12348;SDS011;5974;42.710;27.258;2022-12-18T03:35:42;1.47;;;1.47;;
12348;SDS011;5974;42.710;27.258;2022-12-18T03:38:10;1.60;;;1.60;;
12348;SDS011;5974;42.710;27.258;2022-12-18T03:40:41;1.47;;;1.47;;
12348;SDS011;5974;42.710;27.258;2022-12-18T03:43:18;1.60;;;1.50;;
12348;SDS011;5974;42.710;27.258;2022-12-18T03:45:52;1.70;;;1.60;;
12348;SDS011;5974;42.710;27.258;2022-12-18T03:48:26;1.90;;;1.80;;
12348;SDS011;5974;42.710;27.258;2022-12-18T03:50:57;2.17;;;1.53;;
12348;SDS011;5974;42.710;27.258;2022-12-18T03:53:31;1.30;;;1.30;;
12348;SDS011;5974;42.710;27.258;2022-12-18T03:56:03;1.50;;;1.50;;
12348;SDS011;5974;42.710;27.258;2022-12-18T03:58:34;1.40;;;1.40;;
12348;SDS011;5974;42.710;27.258;2022-12-18T04:01:04;1.87;;;1.77;;
12348;SDS011;5974;42.710;27.258;2022-12-18T04:03:33;1.77;;;1.67;;
12348;SDS011;5974;42.710;27.258;2022-12-18T04:06:02;1.60;;;1.50;;
12348;SDS011;5974;42.710;27.258;2022-12-18T04:08:30;1.77;;;1.40;;
12348;SDS011;5974;42.710;27.258;2022-12-18T04:10:57;1.53;;;1.43;;
12348;SDS011;5974;42.710;27.258;2022-12-18T04:13:24;1.70;;;1.60;;
12348;SDS011;5974;42.710;27.258;2022-12-18T04:15:55;2.17;;;1.70;;
12348;SDS011;5974;42.710;27.258;2022-12-18T04:18:22;1.80;;;1.70;;
12348;SDS011;5974;42.710;27.258;2022-12-18T04:20:49;1.57;;;1.47;;
12348;SDS011;5974;42.710;27.258;2022-12-18T04:23:16;1.70;;;1.60;;
12348;SDS011;5974;42.710;27.258;2022-12-18T04:25:43;1.80;;;1.70;;
12348;SDS011;5974;42.710;27.258;2022-12-18T04:28:10;1.90;;;1.80;;
12348;SDS011;5974;42.710;27.258;2022-12-18T04:30:37;1.77;;;1.67;;
12348;SDS011;5974;42.710;27.258;2022-12-18T04:33:07;1.97;;;1.87;;
12348;SDS011;5974;42.710;27.258;2022-12-18T04:35:34;2.20;;;1.80;;
12348;SDS011;5974;42.710;27.258;2022-12-18T04:38:01;1.70;;;1.60;;
12348;SDS011;5974;42.710;27.258;2022-12-18T04:40:28;3.83;;;1.93;;
12348;SDS011;5974;42.710;27.258;2022-12-18T04:42:55;1.70;;;1.60;;
12348;SDS011;5974;42.710;27.258;2022-12-18T04:45:22;2.00;;;1.90;;
12348;SDS011;5974;42.710;27.258;2022-12-18T04:47:49;2.03;;;1.90;;
12348;SDS011;5974;42.710;27.258;2022-12-18T04:50:17;1.90;;;1.80;;
12348;SDS011;5974;42.710;27.258;2022-12-18T04:52:44;2.27;;;2.10;;
12348;SDS011;5974;42.710;27.258;2022-12-18T04:55:10;2.20;;;2.00;;
12348;SDS011;5974;42.710;27.258;2022-12-18T04:57:37;2.17;;;2.07;;
12348;SDS011;5974;42.710;27.258;2022-12-18T05:00:05;2.63;;;2.43;;
12348;SDS011;5974;42.710;27.258;2022-12-18T05:02:33;2.60;;;2.40;;
12348;SDS011;5974;42.710;27.258;2022-12-18T05:04:59;2.50;;;2.33;;
12348;SDS011;5974;42.710;27.258;2022-12-18T05:07:28;2.20;;;2.10;;
12348;SDS011;5974;42.710;27.258;2022-12-18T05:09:55;2.90;;;2.43;;
12348;SDS011;5974;42.710;27.258;2022-12-18T05:12:23;2.47;;;2.30;;
12348;SDS011;5974;42.710;27.258;2022-12-18T05:14:50;2.60;;;2.40;;
12348;SDS011;5974;42.710;27.258;2022-12-18T05:17:17;2.57;;;2.30;;
12348;SDS011;5974;42.710;27.258;2022-12-18T05:19:44;2.77;;;2.50;;
12348;SDS011;5974;42.710;27.258;2022-12-18T05:22:11;2.77;;;2.57;;
12348;SDS011;5974;42.710;27.258;2022-12-18T05:24:39;2.90;;;2.70;;
12348;SDS011;5974;42.710;27.258;2022-12-18T05:27:06;2.37;;;2.27;;
12348;SDS011;5974;42.710;27.258;2022-12-18T05:29:33;3.27;;;2.97;;
12348;SDS011;5974;42.710;27.258;2022-12-18T05:32:00;2.80;;;2.60;;
12348;SDS011;5974;42.710;27.258;2022-12-18T05:34:26;2.90;;;2.70;;
12348;SDS011;5974;42.710;27.258;2022-12-18T05:36:53;3.40;;;3.13;;
12348;SDS011;5974;42.710;27.258;2022-12-18T05:39:20;2.90;;;2.70;;
12348;SDS011;5974;42.710;27.258;2022-12-18T05:41:48;3.53;;;2.83;;
12348;SDS011;5974;42.710;27.258;2022-12-18T05:44:15;3.60;;;3.30;;
12348;SDS011;5974;42.710;27.258;2022-12-18T05:46:42;3.50;;;2.73;;
12348;SDS011;5974;42.710;27.258;2022-12-18T05:49:09;2.87;;;2.67;;
12348;SDS011;5974;42.710;27.258;2022-12-18T05:51:36;2.90;;;2.70;;
12348;SDS011;5974;42.710;27.258;2022-12-18T05:54:03;3.57;;;3.27;;
12348;SDS011;5974;42.710;27.258;2022-12-18T05:56:29;3.90;;;3.17;;
12348;SDS011;5974;42.710;27.258;2022-12-18T05:58:58;2.97;;;2.77;;
12348;SDS011;5974;42.710;27.258;2022-12-18T06:01:25;3.37;;;3.17;;
12348;SDS011;5974;42.710;27.258;2022-12-18T06:03:53;3.13;;;2.93;;
12348;SDS011;5974;42.710;27.258;2022-12-18T06:06:21;3.07;;;2.77;;
12348;SDS011;5974;42.710;27.258;2022-12-18T06:08:50;3.73;;;3.30;;
12348;SDS011;5974;42.710;27.258;2022-12-18T06:11:18;3.63;;;3.27;;
12348;SDS011;5974;42.710;27.258;2022-12-18T06:13:46;4.40;;;4.00;;
12348;SDS011;5974;42.710;27.258;2022-12-18T06:16:17;3.83;;;3.53;;
12348;SDS011;5974;42.710;27.258;2022-12-18T06:18:43;3.60;;;3.30;;
12348;SDS011;5974;42.710;27.258;2022-12-18T06:21:11;3.73;;;3.40;;
12348;SDS011;5974;42.710;27.258;2022-12-18T06:23:38;4.77;;;4.03;;
12348;SDS011;5974;42.710;27.258;2022-12-18T06:26:05;4.83;;;4.07;;
12348;SDS011;5974;42.710;27.258;2022-12-18T06:28:33;4.50;;;4.03;;
12348;SDS011;5974;42.710;27.258;2022-12-18T06:31:00;5.97;;;4.80;;
12348;SDS011;5974;42.710;27.258;2022-12-18T06:33:30;5.43;;;4.33;;
12348;SDS011;5974;42.710;27.258;2022-12-18T06:35:59;5.30;;;4.80;;
12348;SDS011;5974;42.710;27.258;2022-12-18T06:38:27;6.00;;;5.40;;
12348;SDS011;5974;42.710;27.258;2022-12-18T06:40:53;5.63;;;4.50;;
12348;SDS011;5974;42.710;27.258;2022-12-18T06:43:20;5.30;;;4.80;;
12348;SDS011;5974;42.710;27.258;2022-12-18T06:45:47;5.63;;;4.77;;
12348;SDS011;5974;42.710;27.258;2022-12-18T06:48:17;5.23;;;4.73;;
12348;SDS011;5974;42.710;27.258;2022-12-18T06:50:46;5.63;;;5.13;;
12348;SDS011;5974;42.710;27.258;2022-12-18T06:53:13;5.93;;;5.00;;
12348;SDS011;5974;42.710;27.258;2022-12-18T06:55:40;5.80;;;5.20;;
12348;SDS011;5974;42.710;27.258;2022-12-18T06:58:07;6.20;;;5.60;;
12348;SDS011;5974;42.710;27.258;2022-12-18T07:00:34;5.67;;;5.13;;
12348;SDS011;5974;42.710;27.258;2022-12-18T07:03:01;6.20;;;5.60;;
12348;SDS011;5974;42.710;27.258;2022-12-18T07:05:28;5.83;;;5.33;;
12348;SDS011;5974;42.710;27.258;2022-12-18T07:07:56;6.10;;;5.50;;
12348;SDS011;5974;42.710;27.258;2022-12-18T07:10:23;6.47;;;5.70;;
12348;SDS011;5974;42.710;27.258;2022-12-18T07:12:50;6.20;;;5.60;;
12348;SDS011;5974;42.710;27.258;2022-12-18T07:15:17;6.90;;;5.80;;
12348;SDS011;5974;42.710;27.258;2022-12-18T07:17:44;6.70;;;5.97;;
12348;SDS011;5974;42.710;27.258;2022-12-18T07:20:11;6.83;;;5.60;;
12348;SDS011;5974;42.710;27.258;2022-12-18T07:22:37;7.63;;;6.40;;
12348;SDS011;5974;42.710;27.258;2022-12-18T07:25:07;8.57;;;6.07;;
12348;SDS011;5974;42.710;27.258;2022-12-18T07:27:34;7.53;;;6.73;;
12348;SDS011;5974;42.710;27.258;2022-12-18T07:30:00;7.77;;;5.83;;
12348;SDS011;5974;42.710;27.258;2022-12-18T07:32:27;7.30;;;6.30;;
12348;SDS011;5974;42.710;27.258;2022-12-18T07:34:54;7.20;;;5.93;;
12348;SDS011;5974;42.710;27.258;2022-12-18T07:37:21;7.80;;;6.27;;
12348;SDS011;5974;42.710;27.258;2022-12-18T07:39:48;7.63;;;6.40;;
12348;SDS011;5974;42.710;27.258;2022-12-18T07:42:16;7.90;;;6.50;;
12348;SDS011;5974;42.710;27.258;2022-12-18T07:44:58;8.70;;;7.23;;
12348;SDS011;5974;42.710;27.258;2022-12-18T07:47:26;8.37;;;6.80;;
12348;SDS011;5974;42.710;27.258;2022-12-18T07:49:53;9.17;;;6.57;;
12348;SDS011;5974;42.710;27.258;2022-12-18T07:52:20;8.67;;;7.20;;
12348;SDS011;5974;42.710;27.258;2022-12-18T07:54:47;11.60;;;7.87;;
12348;SDS011;5974;42.710;27.258;2022-12-18T07:57:16;10.53;;;7.40;;
12348;SDS011;5974;42.710;27.258;2022-12-18T07:59:43;10.40;;;7.87;;
12348;SDS011;5974;42.710;27.258;2022-12-18T08:02:10;8.03;;;7.13;;
12348;SDS011;5974;42.710;27.258;2022-12-18T08:04:37;7.90;;;7.03;;
12348;SDS011;5974;42.710;27.258;2022-12-18T08:07:04;9.17;;;7.20;;
12348;SDS011;5974;42.710;27.258;2022-12-18T08:09:31;9.30;;;7.57;;
12348;SDS011;5974;42.710;27.258;2022-12-18T08:11:58;10.47;;;7.33;;
12348;SDS011;5974;42.710;27.258;2022-12-18T08:14:26;9.77;;;7.30;;
12348;SDS011;5974;42.710;27.258;2022-12-18T08:16:53;9.67;;;7.90;;
12348;SDS011;5974;42.710;27.258;2022-12-18T08:19:19;9.87;;;7.50;;
12348;SDS011;5974;42.710;27.258;2022-12-18T08:21:46;10.80;;;7.37;;
12348;SDS011;5974;42.710;27.258;2022-12-18T08:24:13;10.03;;;7.93;;
12348;SDS011;5974;42.710;27.258;2022-12-18T08:26:40;9.63;;;7.37;;
12348;SDS011;5974;42.710;27.258;2022-12-18T08:29:08;12.87;;;8.17;;
12348;SDS011;5974;42.710;27.258;2022-12-18T08:31:36;10.97;;;8.17;;
12348;SDS011;5974;42.710;27.258;2022-12-18T08:34:03;10.77;;;7.97;;
12348;SDS011;5974;42.710;27.258;2022-12-18T08:36:30;10.33;;;8.30;;
12348;SDS011;5974;42.710;27.258;2022-12-18T08:38:57;10.10;;;7.77;;
12348;SDS011;5974;42.710;27.258;2022-12-18T08:41:23;9.87;;;7.63;;
12348;SDS011;5974;42.710;27.258;2022-12-18T08:43:50;10.00;;;8.03;;
12348;SDS011;5974;42.710;27.258;2022-12-18T08:46:35;10.90;;;7.90;;
12348;SDS011;5974;42.710;27.258;2022-12-18T08:49:05;10.97;;;7.93;;
12348;SDS011;5974;42.710;27.258;2022-12-18T08:51:34;11.77;;;7.57;;
12348;SDS011;5974;42.710;27.258;2022-12-18T08:54:01;9.00;;;7.50;;
12348;SDS011;5974;42.710;27.258;2022-12-18T08:56:28;11.73;;;8.03;;
12348;SDS011;5974;42.710;27.258;2022-12-18T08:58:56;9.57;;;8.10;;
12348;SDS011;5974;42.710;27.258;2022-12-18T09:01:23;9.63;;;8.13;;
12348;SDS011;5974;42.710;27.258;2022-12-18T09:03:52;9.83;;;7.93;;
12348;SDS011;5974;42.710;27.258;2022-12-18T09:06:19;10.77;;;7.70;;
12348;SDS011;5974;42.710;27.258;2022-12-18T09:08:47;10.07;;;7.70;;
12348;SDS011;5974;42.710;27.258;2022-12-18T09:11:14;8.70;;;7.77;;
12348;SDS011;5974;42.710;27.258;2022-12-18T09:13:45;10.70;;;9.03;;
12348;SDS011;5974;42.710;27.258;2022-12-18T09:16:11;10.90;;;7.93;;
12348;SDS011;5974;42.710;27.258;2022-12-18T09:18:38;12.07;;;8.70;;
12348;SDS011;5974;42.710;27.258;2022-12-18T09:21:10;10.97;;;8.60;;
12348;SDS011;5974;42.710;27.258;2022-12-18T09:23:38;10.53;;;8.73;;
12348;SDS011;5974;42.710;27.258;2022-12-18T09:26:05;10.53;;;8.40;;
12348;SDS011;5974;42.710;27.258;2022-12-18T09:28:32;9.57;;;8.17;;
12348;SDS011;5974;42.710;27.258;2022-12-18T09:31:03;10.67;;;8.33;;
12348;SDS011;5974;42.710;27.258;2022-12-18T09:33:32;10.60;;;8.43;;
12348;SDS011;5974;42.710;27.258;2022-12-18T09:36:00;10.50;;;8.40;;
12348;SDS011;5974;42.710;27.258;2022-12-18T09:38:33;12.27;;;8.93;;
12348;SDS011;5974;42.710;27.258;2022-12-18T09:41:02;10.97;;;8.60;;
12348;SDS011;5974;42.710;27.258;2022-12-18T09:43:33;10.83;;;9.17;;
12348;SDS011;5974;42.710;27.258;2022-12-18T09:46:04;10.27;;;9.13;;
12348;SDS011;5974;42.710;27.258;2022-12-18T09:48:35;9.47;;;8.43;;
12348;SDS011;5974;42.710;27.258;2022-12-18T09:51:05;10.70;;;7.80;;
12348;SDS011;5974;42.710;27.258;2022-12-18T09:53:41;10.90;;;8.60;;
12348;SDS011;5974;42.710;27.258;2022-12-18T09:56:15;9.40;;;8.40;;
12348;SDS011;5974;42.710;27.258;2022-12-18T09:58:49;11.23;;;9.13;;
12348;SDS011;5974;42.710;27.258;2022-12-18T10:01:21;10.73;;;8.70;;
12348;SDS011;5974;42.710;27.258;2022-12-18T10:03:49;11.73;;;8.47;;
12348;SDS011;5974;42.710;27.258;2022-12-18T10:06:18;12.27;;;9.60;;
12348;SDS011;5974;42.710;27.258;2022-12-18T10:08:53;11.60;;;9.07;;
12348;SDS011;5974;42.710;27.258;2022-12-18T10:11:28;11.30;;;8.20;;
12348;SDS011;5974;42.710;27.258;2022-12-18T10:14:07;11.27;;;8.90;;
12348;SDS011;5974;42.710;27.258;2022-12-18T10:16:42;10.20;;;8.57;;
12348;SDS011;5974;42.710;27.258;2022-12-18T10:19:23;11.87;;;8.97;;
12348;SDS011;5974;42.710;27.258;2022-12-18T10:22:11;11.07;;;8.60;;
12348;SDS011;5974;42.710;27.258;2022-12-18T10:24:49;12.23;;;8.87;;
12348;SDS011;5974;42.710;27.258;2022-12-18T10:27:23;11.57;;;9.03;;
12348;SDS011;5974;42.710;27.258;2022-12-18T10:29:52;11.17;;;8.60;;
12348;SDS011;5974;42.710;27.258;2022-12-18T10:32:20;10.67;;;8.60;;
12348;SDS011;5974;42.710;27.258;2022-12-18T10:34:50;10.80;;;9.03;;
12348;SDS011;5974;42.710;27.258;2022-12-18T10:37:19;12.27;;;9.43;;
12348;SDS011;5974;42.710;27.258;2022-12-18T10:39:46;12.23;;;9.10;;
12348;SDS011;5974;42.710;27.258;2022-12-18T10:42:34;11.90;;;9.13;;
12348;SDS011;5974;42.710;27.258;2022-12-18T10:45:02;10.23;;;8.73;;
12348;SDS011;5974;42.710;27.258;2022-12-18T10:47:34;11.97;;;9.30;;
12348;SDS011;5974;42.710;27.258;2022-12-18T10:50:02;12.47;;;9.67;;
12348;SDS011;5974;42.710;27.258;2022-12-18T10:52:30;11.50;;;9.53;;
12348;SDS011;5974;42.710;27.258;2022-12-18T10:54:59;11.10;;;9.33;;
12348;SDS011;5974;42.710;27.258;2022-12-18T10:57:32;12.60;;;9.40;;
12348;SDS011;5974;42.710;27.258;2022-12-18T11:00:19;14.40;;;10.50;;
12348;SDS011;5974;42.710;27.258;2022-12-18T11:02:52;13.50;;;10.10;;
12348;SDS011;5974;42.710;27.258;2022-12-18T11:05:23;13.30;;;10.27;;
12348;SDS011;5974;42.710;27.258;2022-12-18T11:07:55;13.00;;;9.97;;
12348;SDS011;5974;42.710;27.258;2022-12-18T11:10:23;13.50;;;10.00;;
12348;SDS011;5974;42.710;27.258;2022-12-18T11:12:55;11.13;;;9.93;;
12348;SDS011;5974;42.710;27.258;2022-12-18T11:15:34;12.50;;;9.87;;
12348;SDS011;5974;42.710;27.258;2022-12-18T11:18:01;13.63;;;10.73;;
12348;SDS011;5974;42.710;27.258;2022-12-18T11:20:30;13.03;;;9.63;;
12348;SDS011;5974;42.710;27.258;2022-12-18T11:22:59;13.67;;;10.53;;
12348;SDS011;5974;42.710;27.258;2022-12-18T11:25:28;13.23;;;10.27;;
12348;SDS011;5974;42.710;27.258;2022-12-18T11:27:58;12.47;;;10.80;;
12348;SDS011;5974;42.710;27.258;2022-12-18T11:30:29;15.43;;;11.13;;
12348;SDS011;5974;42.710;27.258;2022-12-18T11:32:59;16.33;;;11.57;;
12348;SDS011;5974;42.710;27.258;2022-12-18T11:35:35;13.67;;;11.30;;
12348;SDS011;5974;42.710;27.258;2022-12-18T11:38:10;15.20;;;12.17;;
12348;SDS011;5974;42.710;27.258;2022-12-18T11:40:44;14.60;;;11.47;;
12348;SDS011;5974;42.710;27.258;2022-12-18T11:43:17;15.07;;;11.63;;
12348;SDS011;5974;42.710;27.258;2022-12-18T11:45:54;17.30;;;12.17;;
12348;SDS011;5974;42.710;27.258;2022-12-18T11:48:27;13.83;;;11.43;;
12348;SDS011;5974;42.710;27.258;2022-12-18T11:50:57;15.10;;;12.27;;
12348;SDS011;5974;42.710;27.258;2022-12-18T11:53:27;18.37;;;13.73;;
12348;SDS011;5974;42.710;27.258;2022-12-18T11:56:01;15.60;;;12.43;;
12348;SDS011;5974;42.710;27.258;2022-12-18T11:58:37;16.00;;;12.63;;
12348;SDS011;5974;42.710;27.258;2022-12-18T12:01:13;16.93;;;12.80;;
12348;SDS011;5974;42.710;27.258;2022-12-18T12:06:52;23.23;;;16.63;;
12348;SDS011;5974;42.710;27.258;2022-12-18T12:09:26;17.50;;;13.90;;
12348;SDS011;5974;42.710;27.258;2022-12-18T12:12:02;21.63;;;16.93;;
12348;SDS011;5974;42.710;27.258;2022-12-18T12:14:45;16.27;;;13.37;;
12348;SDS011;5974;42.710;27.258;2022-12-18T12:17:24;18.70;;;14.33;;
12348;SDS011;5974;42.710;27.258;2022-12-18T12:20:00;18.23;;;13.40;;
12348;SDS011;5974;42.710;27.258;2022-12-18T12:22:35;18.47;;;14.07;;
12348;SDS011;5974;42.710;27.258;2022-12-18T12:25:25;17.00;;;13.80;;
12348;SDS011;5974;42.710;27.258;2022-12-18T12:28:04;17.30;;;13.00;;
12348;SDS011;5974;42.710;27.258;2022-12-18T12:30:45;18.13;;;13.97;;
12348;SDS011;5974;42.710;27.258;2022-12-18T12:33:26;19.57;;;14.53;;
12348;SDS011;5974;42.710;27.258;2022-12-18T12:36:05;19.57;;;15.10;;
12348;SDS011;5974;42.710;27.258;2022-12-18T12:38:41;18.90;;;14.87;;
12348;SDS011;5974;42.710;27.258;2022-12-18T12:41:12;19.13;;;14.13;;
12348;SDS011;5974;42.710;27.258;2022-12-18T12:43:56;18.07;;;14.00;;
12348;SDS011;5974;42.710;27.258;2022-12-18T12:46:26;16.60;;;13.70;;
12348;SDS011;5974;42.710;27.258;2022-12-18T12:48:53;19.77;;;14.87;;
12348;SDS011;5974;42.710;27.258;2022-12-18T12:51:24;18.00;;;15.03;;
12348;SDS011;5974;42.710;27.258;2022-12-18T12:53:54;22.27;;;15.80;;
12348;SDS011;5974;42.710;27.258;2022-12-18T12:56:25;22.50;;;16.43;;
12348;SDS011;5974;42.710;27.258;2022-12-18T12:59:04;20.47;;;15.47;;
12348;SDS011;5974;42.710;27.258;2022-12-18T13:01:41;18.40;;;14.27;;
12348;SDS011;5974;42.710;27.258;2022-12-18T13:04:21;18.07;;;14.10;;
12348;SDS011;5974;42.710;27.258;2022-12-18T13:06:56;18.13;;;13.63;;
12348;SDS011;5974;42.710;27.258;2022-12-18T13:09:29;19.60;;;13.63;;
12348;SDS011;5974;42.710;27.258;2022-12-18T13:12:01;16.37;;;12.73;;
12348;SDS011;5974;42.710;27.258;2022-12-18T13:14:46;15.90;;;13.17;;
12348;SDS011;5974;42.710;27.258;2022-12-18T13:17:21;16.93;;;13.00;;
12348;SDS011;5974;42.710;27.258;2022-12-18T13:20:06;19.30;;;13.40;;
12348;SDS011;5974;42.710;27.258;2022-12-18T13:22:35;17.13;;;13.67;;
12348;SDS011;5974;42.710;27.258;2022-12-18T13:28:10;17.43;;;13.40;;
12348;SDS011;5974;42.710;27.258;2022-12-18T13:30:42;16.53;;;12.93;;
12348;SDS011;5974;42.710;27.258;2022-12-18T13:33:34;16.07;;;12.50;;
12348;SDS011;5974;42.710;27.258;2022-12-18T13:36:09;15.63;;;12.43;;
12348;SDS011;5974;42.710;27.258;2022-12-18T13:38:41;16.50;;;12.53;;
12348;SDS011;5974;42.710;27.258;2022-12-18T13:41:22;18.10;;;13.23;;
12348;SDS011;5974;42.710;27.258;2022-12-18T13:43:54;16.63;;;13.23;;
12348;SDS011;5974;42.710;27.258;2022-12-18T13:46:24;18.40;;;12.80;;
12348;SDS011;5974;42.710;27.258;2022-12-18T13:48:56;17.63;;;12.83;;
12348;SDS011;5974;42.710;27.258;2022-12-18T13:51:26;17.70;;;13.03;;
12348;SDS011;5974;42.710;27.258;2022-12-18T13:53:55;17.37;;;13.27;;
12348;SDS011;5974;42.710;27.258;2022-12-18T13:56:25;16.43;;;12.43;;
12348;SDS011;5974;42.710;27.258;2022-12-18T13:59:03;15.00;;;12.47;;
12348;SDS011;5974;42.710;27.258;2022-12-18T14:01:41;19.57;;;13.80;;
12348;SDS011;5974;42.710;27.258;2022-12-18T14:04:11;16.33;;;13.13;;
12348;SDS011;5974;42.710;27.258;2022-12-18T14:06:43;17.83;;;12.70;;
12348;SDS011;5974;42.710;27.258;2022-12-18T14:09:13;18.70;;;12.80;;
12348;SDS011;5974;42.710;27.258;2022-12-18T14:11:45;17.00;;;12.57;;
12348;SDS011;5974;42.710;27.258;2022-12-18T14:14:13;14.80;;;12.07;;
12348;SDS011;5974;42.710;27.258;2022-12-18T14:16:42;17.47;;;13.33;;
12348;SDS011;5974;42.710;27.258;2022-12-18T14:19:11;16.53;;;13.00;;
12348;SDS011;5974;42.710;27.258;2022-12-18T14:21:45;19.50;;;13.40;;
12348;SDS011;5974;42.710;27.258;2022-12-18T14:24:15;17.50;;;13.47;;
12348;SDS011;5974;42.710;27.258;2022-12-18T14:26:44;17.13;;;13.10;;
12348;SDS011;5974;42.710;27.258;2022-12-18T14:29:18;21.27;;;14.00;;
12348;SDS011;5974;42.710;27.258;2022-12-18T14:34:38;18.37;;;14.27;;
12348;SDS011;5974;42.710;27.258;2022-12-18T14:37:05;18.53;;;14.00;;
12348;SDS011;5974;42.710;27.258;2022-12-18T14:39:35;18.50;;;14.70;;
12348;SDS011;5974;42.710;27.258;2022-12-18T14:42:02;17.93;;;14.30;;
12348;SDS011;5974;42.710;27.258;2022-12-18T14:44:29;18.83;;;14.93;;
12348;SDS011;5974;42.710;27.258;2022-12-18T14:46:56;19.23;;;14.60;;
12348;SDS011;5974;42.710;27.258;2022-12-18T14:49:23;21.17;;;15.27;;
12348;SDS011;5974;42.710;27.258;2022-12-18T14:51:55;18.93;;;14.77;;
12348;SDS011;5974;42.710;27.258;2022-12-18T14:54:23;19.50;;;14.60;;
12348;SDS011;5974;42.710;27.258;2022-12-18T14:56:51;19.03;;;14.80;;
12348;SDS011;5974;42.710;27.258;2022-12-18T14:59:25;18.07;;;15.00;;
12348;SDS011;5974;42.710;27.258;2022-12-18T15:01:56;20.73;;;14.77;;
12348;SDS011;5974;42.710;27.258;2022-12-18T15:04:28;20.40;;;14.90;;
12348;SDS011;5974;42.710;27.258;2022-12-18T15:07:04;21.97;;;15.37;;